Time;durP1;ratioP1;P1;durP2;ratioP2;P2;SDS_P1;SDS_P2;PMS_P1;PMS_P2;Temp;Humidity;BMP_temperature;BMP_pressure;BME280_temperature;BME280_humidity;BME280_pressure;Samples;Min_cycle;Max_cycle;Signal;HPM_P1;HPM_P2
2023/06/27 00:00:47;;;;;;;12.90;9.25;;;16.50;99.90;;;;;;5097113;28;20095;-62
2023/06/27 00:03:13;;;;;;;17.25;9.07;;;16.50;99.90;;;;;;5097121;28;20546;-62
2023/06/27 00:05:39;;;;;;;16.15;9.27;;;16.50;99.90;;;;;;5097326;28;20035;-62
2023/06/27 00:08:06;;;;;;;15.75;9.25;;;16.50;99.90;;;;;;5116574;28;20036;-62
2023/06/27 00:10:32;;;;;;;18.52;9.25;;;16.40;99.90;;;;;;5117476;28;20023;-62
2023/06/27 00:12:59;;;;;;;16.00;9.38;;;16.40;99.90;;;;;;5117459;28;20035;-62
2023/06/27 00:15:27;;;;;;;12.65;8.77;;;16.40;99.90;;;;;;5117234;28;20032;-62
2023/06/27 00:17:53;;;;;;;13.30;8.63;;;16.40;99.90;;;;;;5117465;28;20036;-62
2023/06/27 00:20:19;;;;;;;14.05;9.43;;;16.40;99.90;;;;;;5117669;28;20034;-62
2023/06/27 00:22:46;;;;;;;16.45;9.10;;;16.30;99.90;;;;;;5117112;28;20019;-62
2023/06/27 00:25:12;;;;;;;14.18;8.70;;;16.30;99.90;;;;;;5117230;28;20480;-62
2023/06/27 00:27:39;;;;;;;13.85;8.90;;;16.30;99.90;;;;;;5117614;28;20051;-62
2023/06/27 00:30:06;;;;;;;15.20;8.77;;;16.30;99.90;;;;;;5115551;28;20494;-62
2023/06/27 00:32:32;;;;;;;16.92;8.80;;;16.30;99.90;;;;;;5115920;28;20119;-63
2023/06/27 00:34:58;;;;;;;19.30;8.73;;;16.30;99.90;;;;;;5115869;28;20027;-62
2023/06/27 00:37:24;;;;;;;16.30;8.95;;;16.30;99.90;;;;;;5117140;28;20032;-62
2023/06/27 00:39:50;;;;;;;20.13;10.15;;;16.20;99.90;;;;;;5115931;28;20034;-62
2023/06/27 00:42:17;;;;;;;17.05;9.57;;;16.20;99.90;;;;;;5116890;28;20504;-62
2023/06/27 00:44:43;;;;;;;17.48;8.82;;;16.20;99.90;;;;;;5116733;28;20043;-62
2023/06/27 00:47:10;;;;;;;14.27;9.20;;;16.20;99.90;;;;;;5115577;28;20055;-62
2023/06/27 00:49:36;;;;;;;15.65;8.93;;;16.10;99.90;;;;;;5116252;28;20392;-62
2023/06/27 00:52:02;;;;;;;19.65;9.75;;;16.10;99.90;;;;;;5116683;28;20039;-62
2023/06/27 00:54:29;;;;;;;15.23;8.98;;;16.10;99.90;;;;;;5116772;28;20480;-62
2023/06/27 00:56:56;;;;;;;13.40;8.80;;;16.10;99.90;;;;;;5115380;28;20027;-62
2023/06/27 00:59:22;;;;;;;18.80;8.73;;;16.10;99.90;;;;;;5115330;28;20051;-62
2023/06/27 01:01:48;;;;;;;15.93;8.65;;;16.10;99.90;;;;;;5116968;27;20118;-62
2023/06/27 01:04:14;;;;;;;16.67;9.15;;;16.10;99.90;;;;;;5115287;28;20059;-62
2023/06/27 01:07:09;;;;;;;15.73;9.48;;;16.00;99.90;;;;;;5109139;28;20463;-62
2023/06/27 01:09:45;;;;;;;13.25;8.65;;;16.00;99.90;;;;;;5094741;28;20504;-62
2023/06/27 01:12:26;;;;;;;12.07;8.60;;;16.00;99.90;;;;;;5096042;28;20016;-63
2023/06/27 01:14:56;;;;;;;17.67;9.43;;;16.00;99.90;;;;;;5095804;28;20135;-62
2023/06/27 01:17:25;;;;;;;14.45;8.90;;;16.00;99.90;;;;;;5094706;28;20040;-62
2023/06/27 01:19:52;;;;;;;16.40;9.15;;;15.90;99.90;;;;;;5095831;28;20036;-63
2023/06/27 01:22:30;;;;;;;16.88;9.73;;;15.90;99.90;;;;;;5095791;28;20419;-63
2023/06/27 01:24:57;;;;;;;16.55;10.00;;;15.90;99.90;;;;;;5095827;28;20024;-62
2023/06/27 01:27:23;;;;;;;16.40;9.45;;;15.90;99.90;;;;;;5095715;28;20071;-62
2023/06/27 01:29:49;;;;;;;17.38;9.13;;;15.90;99.90;;;;;;5095718;28;20028;-62
2023/06/27 01:32:24;;;;;;;18.45;9.77;;;16.00;99.90;;;;;;5094276;28;20043;-62
2023/06/27 01:35:16;;;;;;;14.70;8.95;;;15.90;99.90;;;;;;5094265;28;20024;-62
2023/06/27 01:37:52;;;;;;;15.32;9.40;;;15.90;99.90;;;;;;5087588;28;20088;-63
2023/06/27 01:40:20;;;;;;;14.27;9.23;;;15.90;99.90;;;;;;5095468;28;20055;-62
2023/06/27 01:43:09;;;;;;;20.88;9.80;;;15.90;99.90;;;;;;5095318;28;20043;-63
2023/06/27 01:45:38;;;;;;;17.75;10.38;;;15.80;99.90;;;;;;5095489;28;20385;-63
2023/06/27 01:48:07;;;;;;;16.48;9.38;;;15.80;99.90;;;;;;5094056;28;20032;-62
2023/06/27 01:50:33;;;;;;;15.02;9.63;;;15.80;99.90;;;;;;5095197;28;20036;-62
2023/06/27 01:52:59;;;;;;;15.23;9.18;;;15.80;99.90;;;;;;5093980;28;20035;-63
2023/06/27 01:55:25;;;;;;;13.73;9.43;;;15.70;99.90;;;;;;5093898;28;20032;-62
2023/06/27 01:57:51;;;;;;;18.27;10.05;;;15.70;99.90;;;;;;5093904;28;20568;-62
2023/06/27 02:00:18;;;;;;;15.52;9.10;;;15.70;99.90;;;;;;5093083;28;20028;-62
2023/06/27 02:02:44;;;;;;;15.18;9.45;;;15.60;99.90;;;;;;5094801;28;20043;-62
2023/06/27 02:05:10;;;;;;;15.23;9.23;;;15.60;99.90;;;;;;5093780;28;20039;-62
2023/06/27 02:07:36;;;;;;;15.50;9.25;;;15.60;99.90;;;;;;5108772;28;20118;-62
2023/06/27 02:10:02;;;;;;;15.95;9.38;;;15.60;99.90;;;;;;5115123;28;20069;-62
2023/06/27 02:12:29;;;;;;;19.33;9.98;;;15.60;99.90;;;;;;5115311;28;20029;-62
2023/06/27 02:14:55;;;;;;;17.77;9.45;;;15.60;99.90;;;;;;5115237;28;20040;-62
2023/06/27 02:17:21;;;;;;;15.52;9.38;;;15.60;99.90;;;;;;5115098;28;20066;-62
2023/06/27 02:19:47;;;;;;;18.55;9.00;;;15.60;99.90;;;;;;5115288;28;20059;-63
2023/06/27 02:22:13;;;;;;;14.77;9.25;;;15.60;99.90;;;;;;5113986;28;20031;-61
2023/06/27 02:24:39;;;;;;;13.02;8.30;;;15.50;99.90;;;;;;5113579;28;20039;-62
2023/06/27 02:27:06;;;;;;;15.48;10.07;;;15.50;99.90;;;;;;5113868;28;20444;-62
2023/06/27 02:29:32;;;;;;;17.27;8.70;;;15.50;99.90;;;;;;5115100;28;20369;-62
2023/06/27 02:31:58;;;;;;;13.65;8.88;;;15.40;99.90;;;;;;5114923;28;20032;-62
2023/06/27 02:34:24;;;;;;;15.10;8.85;;;15.40;99.90;;;;;;5115181;28;20106;-62
2023/06/27 02:36:49;;;;;;;13.02;8.98;;;15.40;99.90;;;;;;5115163;28;20108;-62
2023/06/27 02:39:16;;;;;;;15.45;9.25;;;15.40;99.90;;;;;;5114845;28;20039;-62
2023/06/27 02:41:42;;;;;;;15.23;8.93;;;15.40;99.90;;;;;;5115172;28;20065;-62
2023/06/27 02:44:08;;;;;;;15.05;8.73;;;15.40;99.90;;;;;;5114986;28;20027;-62
2023/06/27 02:46:33;;;;;;;17.13;8.60;;;15.40;99.90;;;;;;5114860;28;20027;-63
2023/06/27 02:49:01;;;;;;;17.52;8.68;;;15.40;99.90;;;;;;5114832;28;20092;-62
2023/06/27 02:51:27;;;;;;;14.57;8.80;;;15.30;99.90;;;;;;5114861;28;20019;-62
2023/06/27 02:53:53;;;;;;;12.95;8.68;;;15.40;99.90;;;;;;5115138;28;20028;-62
2023/06/27 02:56:19;;;;;;;18.42;8.63;;;15.30;99.90;;;;;;5113702;28;20081;-62
2023/06/27 02:58:45;;;;;;;14.02;8.10;;;15.40;99.90;;;;;;5113496;28;20031;-62
2023/06/27 03:01:11;;;;;;;13.90;8.98;;;15.30;99.90;;;;;;5113336;28;20057;-62
2023/06/27 03:03:42;;;;;;;12.65;8.40;;;15.30;99.90;;;;;;5114816;28;20031;-62
2023/06/27 03:06:08;;;;;;;13.45;8.23;;;15.40;99.90;;;;;;5110652;28;20032;-62
2023/06/27 03:08:37;;;;;;;15.18;8.52;;;15.30;99.90;;;;;;5092816;28;20032;-62
2023/06/27 03:11:04;;;;;;;13.48;9.18;;;15.30;99.90;;;;;;5094349;28;20040;-62
2023/06/27 03:13:31;;;;;;;15.65;9.32;;;15.20;99.90;;;;;;5096203;28;20032;-62
2023/06/27 03:15:57;;;;;;;15.95;8.77;;;15.20;99.90;;;;;;5096893;28;20182;-62
2023/06/27 03:18:23;;;;;;;20.73;8.75;;;15.20;99.90;;;;;;5096941;28;20397;-62
2023/06/27 03:20:50;;;;;;;14.02;9.10;;;15.20;99.90;;;;;;5098297;28;20086;-62
2023/06/27 03:23:16;;;;;;;17.02;8.75;;;15.20;99.90;;;;;;5096491;28;20016;-62
2023/06/27 03:25:42;;;;;;;15.05;8.98;;;15.10;99.90;;;;;;5098223;28;20028;-62
2023/06/27 03:28:08;;;;;;;16.08;9.40;;;15.10;99.90;;;;;;5096657;28;20032;-62
2023/06/27 03:30:44;;;;;;;13.73;8.93;;;15.20;99.90;;;;;;5096679;28;20031;-62
2023/06/27 03:33:12;;;;;;;14.85;9.02;;;15.20;99.90;;;;;;5096550;28;20052;-62
2023/06/27 03:35:38;;;;;;;16.90;10.25;;;15.20;99.90;;;;;;5096692;28;20509;-62
2023/06/27 03:38:04;;;;;;;18.60;9.63;;;15.20;99.90;;;;;;5096840;28;20047;-62
2023/06/27 03:40:30;;;;;;;18.90;9.45;;;15.20;99.90;;;;;;5097881;28;20028;-62
2023/06/27 03:42:57;;;;;;;19.55;10.23;;;15.20;99.90;;;;;;5096361;28;20031;-62
2023/06/27 03:45:24;;;;;;;20.25;9.82;;;15.20;99.90;;;;;;5096539;28;20024;-63
2023/06/27 03:47:50;;;;;;;16.80;9.73;;;15.20;99.90;;;;;;5096234;28;20028;-62
2023/06/27 03:50:16;;;;;;;20.45;10.35;;;15.30;99.90;;;;;;5096165;28;20150;-63
2023/06/27 03:52:44;;;;;;;16.00;9.85;;;15.30;99.90;;;;;;5096275;28;20032;-62
2023/06/27 03:55:11;;;;;;;17.05;9.93;;;15.40;99.90;;;;;;5097564;28;20039;-62
2023/06/27 03:57:37;;;;;;;15.15;10.25;;;15.40;99.90;;;;;;5096068;28;20028;-62
2023/06/27 04:00:07;;;;;;;16.75;11.15;;;15.50;99.90;;;;;;5096161;28;20444;-62
2023/06/27 04:02:41;;;;;;;17.83;12.40;;;15.50;99.90;;;;;;5097594;28;20043;-62
2023/06/27 04:05:08;;;;;;;23.40;12.65;;;15.60;99.90;;;;;;5096093;28;20028;-61
2023/06/27 04:07:35;;;;;;;18.02;11.45;;;15.60;99.90;;;;;;5111021;28;20038;-62
2023/06/27 04:10:01;;;;;;;18.85;11.32;;;15.70;99.90;;;;;;5116144;28;20023;-63
2023/06/27 04:12:27;;;;;;;15.50;10.60;;;15.70;99.90;;;;;;5117536;28;20024;-62
2023/06/27 04:14:52;;;;;;;18.35;10.70;;;15.80;99.90;;;;;;5116049;28;20058;-62
2023/06/27 04:17:18;;;;;;;16.48;9.45;;;15.80;99.90;;;;;;5117656;28;20413;-62
2023/06/27 04:19:44;;;;;;;17.92;10.90;;;15.80;99.90;;;;;;5116016;28;20061;-61
2023/06/27 04:22:11;;;;;;;21.98;11.32;;;15.90;99.90;;;;;;5116212;28;20028;-62
2023/06/27 04:24:37;;;;;;;22.13;10.70;;;15.90;99.90;;;;;;5114927;28;20027;-62
2023/06/27 04:27:03;;;;;;;20.08;11.20;;;16.00;99.90;;;;;;5115867;28;20480;-62
2023/06/27 04:29:29;;;;;;;19.75;11.77;;;16.10;99.90;;;;;;5117272;28;20032;-62
2023/06/27 04:31:55;;;;;;;23.70;11.30;;;16.20;99.90;;;;;;5117125;28;20027;-62
2023/06/27 04:34:21;;;;;;;18.13;11.43;;;16.30;99.90;;;;;;5117162;28;20534;-62
2023/06/27 04:36:47;;;;;;;17.63;10.50;;;16.30;99.90;;;;;;5117176;28;20070;-62
2023/06/27 04:39:12;;;;;;;30.17;13.55;;;16.40;99.90;;;;;;5116957;28;20055;-62
2023/06/27 04:41:39;;;;;;;30.33;14.25;;;16.50;99.90;;;;;;5116990;28;20039;-62
2023/06/27 04:44:05;;;;;;;28.23;14.32;;;16.70;99.90;;;;;;5115601;28;20032;-63
2023/06/27 04:46:31;;;;;;;20.20;12.73;;;16.70;99.90;;;;;;5116833;28;20471;-62
2023/06/27 04:48:57;;;;;;;23.65;12.13;;;16.70;99.90;;;;;;5116726;28;20039;-63
2023/06/27 04:51:27;;;;;;;26.08;13.43;;;16.80;99.90;;;;;;5116954;28;20022;-62
2023/06/27 04:53:53;;;;;;;26.90;13.50;;;16.90;99.90;;;;;;5116809;28;20032;-62
2023/06/27 04:56:19;;;;;;;20.92;12.80;;;17.00;99.90;;;;;;5116722;28;20028;-62
2023/06/27 04:58:45;;;;;;;24.73;12.50;;;17.10;99.90;;;;;;5116582;27;20057;-62
2023/06/27 05:01:11;;;;;;;20.95;13.13;;;17.20;99.90;;;;;;5116333;28;20540;-62
2023/06/27 05:03:37;;;;;;;22.75;13.07;;;17.30;99.90;;;;;;5116573;28;20023;-62
2023/06/27 05:06:04;;;;;;;24.60;13.13;;;17.40;99.90;;;;;;5114541;27;20061;-62
2023/06/27 05:08:30;;;;;;;19.38;11.63;;;17.50;99.90;;;;;;5095884;28;20035;-62
2023/06/27 05:10:57;;;;;;;25.13;12.75;;;17.60;99.90;;;;;;5095869;28;20469;-62
2023/06/27 05:13:23;;;;;;;22.75;12.95;;;17.50;99.90;;;;;;5095991;28;20032;-62
2023/06/27 05:15:49;;;;;;;23.35;13.25;;;17.70;99.90;;;;;;5095709;28;20568;-62
2023/06/27 05:18:15;;;;;;;21.70;12.18;;;17.80;99.90;;;;;;5096295;28;20473;-62
2023/06/27 05:20:45;;;;;;;23.48;14.30;;;17.90;99.90;;;;;;5096201;28;20034;-62
2023/06/27 05:23:11;;;;;;;22.30;15.15;;;18.00;99.90;;;;;;5093382;28;20063;-62
2023/06/27 05:25:37;;;;;;;23.60;15.70;;;18.10;99.90;;;;;;5114254;28;20571;-62
2023/06/27 05:28:04;;;;;;;25.25;15.57;;;18.20;99.90;;;;;;5116552;28;20028;-62
2023/06/27 05:30:32;;;;;;;22.13;15.63;;;18.30;99.90;;;;;;5116513;28;20035;-62
2023/06/27 05:32:58;;;;;;;26.98;15.25;;;18.30;99.90;;;;;;5116679;28;20465;-62
2023/06/27 05:35:24;;;;;;;29.98;15.32;;;18.40;99.90;;;;;;5115677;28;20065;-62
2023/06/27 05:37:51;;;;;;;22.50;13.73;;;18.60;99.90;;;;;;5115230;28;20027;-62
2023/06/27 05:40:16;;;;;;;27.83;13.65;;;18.60;99.90;;;;;;5115740;28;20546;-62
2023/06/27 05:42:42;;;;;;;25.70;13.70;;;18.80;99.90;;;;;;5115619;28;20044;-62
2023/06/27 05:45:09;;;;;;;24.63;13.85;;;18.90;99.90;;;;;;5115547;28;20078;-62
2023/06/27 05:47:35;;;;;;;22.88;12.98;;;19.10;99.90;;;;;;5115744;28;20027;-62
2023/06/27 05:50:01;;;;;;;21.58;12.20;;;19.20;99.90;;;;;;5115521;28;20106;-62
2023/06/27 05:52:29;;;;;;;23.70;12.63;;;19.30;99.90;;;;;;5115371;28;20023;-62
2023/06/27 05:54:55;;;;;;;38.90;15.73;;;19.40;99.90;;;;;;5115552;28;20016;-63
2023/06/27 05:57:22;;;;;;;22.80;13.05;;;19.50;99.90;;;;;;5115022;28;20054;-62
2023/06/27 05:59:48;;;;;;;22.73;12.50;;;19.60;99.90;;;;;;5115300;28;20031;-62
2023/06/27 06:02:16;;;;;;;19.02;12.93;;;19.80;99.90;;;;;;5115422;28;20031;-62
2023/06/27 06:04:42;;;;;;;27.33;13.50;;;19.90;99.90;;;;;;5115242;28;20031;-62
2023/06/27 06:07:08;;;;;;;21.13;12.18;;;20.00;99.90;;;;;;5103702;27;20466;-62
2023/06/27 06:09:34;;;;;;;19.13;11.48;;;20.10;99.90;;;;;;5094685;28;20391;-62
2023/06/27 06:12:00;;;;;;;25.23;11.90;;;20.20;99.90;;;;;;5094826;28;20020;-62
2023/06/27 06:18:22;;;;;;;23.50;12.45;;;20.60;99.90;;;;;;5114860;28;20127;-62
2023/06/27 06:20:48;;;;;;;961.72;270.98;;;20.80;99.90;;;;;;5114808;28;20489;-64
2023/06/27 06:23:13;;;;;;;104.07;30.50;;;20.90;99.90;;;;;;5093801;28;20306;-64
2023/06/27 06:25:39;;;;;;;26.83;12.52;;;21.00;99.90;;;;;;5093849;28;20030;-64
2023/06/27 06:28:05;;;;;;;21.25;11.75;;;21.10;99.90;;;;;;5094209;28;20024;-65
2023/06/27 06:30:31;;;;;;;25.75;11.27;;;21.20;99.90;;;;;;5090921;28;20024;-65
2023/06/27 06:32:57;;;;;;;21.83;10.95;;;21.40;99.90;;;;;;5110798;28;20031;-65
2023/06/27 06:35:23;;;;;;;16.85;10.63;;;21.60;99.90;;;;;;5114846;28;20094;-65
2023/06/27 06:37:49;;;;;;;19.70;9.88;;;21.70;99.90;;;;;;5115537;28;20027;-65
2023/06/27 06:40:14;;;;;;;21.25;9.63;;;21.90;99.90;;;;;;5115201;28;20029;-65
2023/06/27 06:42:40;;;;;;;19.77;10.65;;;22.00;99.90;;;;;;5114826;28;20034;-65
2023/06/27 06:45:08;;;;;;;19.75;10.85;;;22.20;99.90;;;;;;5114749;28;20024;-65
2023/06/27 06:47:35;;;;;;;19.88;11.82;;;22.30;99.90;;;;;;5115455;28;20023;-65
2023/06/27 06:50:01;;;;;;;25.98;11.98;;;22.50;99.90;;;;;;5118917;28;20051;-66
2023/06/27 06:52:26;;;;;;;22.42;11.35;;;22.60;99.90;;;;;;5118967;28;20062;-65
2023/06/27 06:54:52;;;;;;;16.58;10.90;;;22.80;99.90;;;;;;5118655;27;20120;-65
2023/06/27 06:57:18;;;;;;;18.45;10.10;;;22.80;99.90;;;;;;5118933;28;20035;-65
2023/06/27 06:59:44;;;;;;;24.90;10.20;;;23.10;99.90;;;;;;5118619;28;20047;-65
2023/06/27 07:02:10;;;;;;;20.52;9.68;;;23.40;99.90;;;;;;5118921;28;20061;-65
2023/06/27 07:04:36;;;;;;;18.17;9.95;;;23.60;99.90;;;;;;5118664;28;20388;-66
2023/06/27 07:07:01;;;;;;;17.92;10.30;;;23.80;99.90;;;;;;5118537;28;20057;-66
2023/06/27 07:09:28;;;;;;;19.17;11.10;;;24.00;99.90;;;;;;5118441;28;20484;-65
2023/06/27 07:11:54;;;;;;;17.83;10.30;;;24.30;99.90;;;;;;5118619;28;20357;-66
2023/06/27 07:14:20;;;;;;;18.05;9.43;;;24.40;97.80;;;;;;5118150;28;20065;-65
2023/06/27 07:16:46;;;;;;;17.50;9.82;;;24.60;96.10;;;;;;5118348;28;20048;-66
2023/06/27 07:19:12;;;;;;;18.27;9.77;;;25.00;96.20;;;;;;5118569;28;20024;-66
2023/06/27 07:21:38;;;;;;;25.55;10.35;;;25.20;94.40;;;;;;5118494;28;20049;-66
2023/06/27 07:24:05;;;;;;;20.55;9.32;;;25.40;93.60;;;;;;5117842;28;20046;-66
2023/06/27 07:26:33;;;;;;;20.88;9.65;;;25.80;94.40;;;;;;5106794;28;20111;-66
2023/06/27 07:28:58;;;;;;;20.33;8.85;;;26.10;93.30;;;;;;5096702;28;20412;-66
2023/06/27 07:31:25;;;;;;;17.38;8.05;;;26.50;92.10;;;;;;5098705;28;20021;-65
2023/06/27 07:33:53;;;;;;;12.75;8.27;;;26.70;88.80;;;;;;5098732;28;20028;-66
2023/06/27 07:36:21;;;;;;;23.45;9.07;;;27.00;86.70;;;;;;5097964;28;20116;-66
2023/06/27 07:38:48;;;;;;;17.77;7.80;;;26.90;83.10;;;;;;5097634;28;20150;-66
2023/06/27 07:41:14;;;;;;;26.55;11.63;;;27.30;85.70;;;;;;5101660;28;20074;-65
2023/06/27 07:43:40;;;;;;;12.88;8.00;;;27.70;85.00;;;;;;5118631;28;20381;-65
2023/06/27 07:46:05;;;;;;;14.65;8.18;;;27.80;79.90;;;;;;5118842;28;20106;-65
2023/06/27 07:48:31;;;;;;;15.45;8.10;;;28.00;80.30;;;;;;5118422;28;20027;-66
2023/06/27 07:50:57;;;;;;;22.45;9.73;;;28.10;77.60;;;;;;5116541;28;20032;-65
2023/06/27 07:53:23;;;;;;;12.85;7.72;;;28.10;78.50;;;;;;5118387;28;20022;-65
2023/06/27 07:55:49;;;;;;;14.77;7.70;;;28.30;76.10;;;;;;5117975;28;20392;-65
2023/06/27 07:58:16;;;;;;;10.82;7.05;;;28.60;74.90;;;;;;5118327;28;20030;-65
2023/06/27 08:00:44;;;;;;;16.52;9.00;;;28.80;73.50;;;;;;5117825;28;20110;-66
2023/06/27 08:03:10;;;;;;;19.45;8.07;;;28.10;77.60;;;;;;5118425;28;20031;-66
2023/06/27 08:05:38;;;;;;;13.00;7.38;;;28.70;72.80;;;;;;5117860;28;20609;-66
2023/06/27 08:08:04;;;;;;;14.52;7.90;;;29.20;71.10;;;;;;5098428;28;20024;-66
2023/06/27 08:10:30;;;;;;;15.10;7.75;;;29.70;69.90;;;;;;5097765;28;20400;-66
2023/06/27 08:12:56;;;;;;;13.93;7.53;;;29.90;72.40;;;;;;5097656;28;20085;-66
2023/06/27 08:15:22;;;;;;;11.93;6.88;;;29.80;69.70;;;;;;5097608;28;20446;-66
2023/06/27 08:17:48;;;;;;;15.52;8.77;;;30.10;67.70;;;;;;5097754;28;20099;-66
2023/06/27 08:20:14;;;;;;;13.85;8.75;;;30.20;64.60;;;;;;5097573;28;20024;-66
2023/06/27 08:22:40;;;;;;;18.02;8.63;;;30.40;63.90;;;;;;5096980;28;20495;-66
2023/06/27 08:25:06;;;;;;;16.58;9.32;;;30.60;62.90;;;;;;5096970;28;20028;-66
2023/06/27 08:27:32;;;;;;;13.25;7.38;;;30.20;63.40;;;;;;5096886;28;20024;-66
2023/06/27 08:29:59;;;;;;;12.00;7.80;;;30.40;59.80;;;;;;5111047;28;20096;-66
2023/06/27 08:32:25;;;;;;;12.35;7.75;;;30.90;61.10;;;;;;5105775;28;20032;-66
2023/06/27 08:34:51;;;;;;;14.10;8.80;;;31.10;59.40;;;;;;5097094;28;20116;-66
2023/06/27 08:37:17;;;;;;;13.20;7.03;;;31.00;59.00;;;;;;5097153;28;20031;-66
2023/06/27 08:39:51;;;;;;;16.65;7.00;;;31.20;61.50;;;;;;5097563;28;20692;-67
2023/06/27 08:42:18;;;;;;;11.43;7.00;;;31.20;60.20;;;;;;5096110;28;20027;-67
2023/06/27 08:44:46;;;;;;;10.10;7.55;;;31.20;58.60;;;;;;5097537;28;20039;-67
2023/06/27 08:47:16;;;;;;;9.80;7.78;;;31.50;57.80;;;;;;5096849;28;20506;-67
2023/06/27 08:49:48;;;;;;;9.07;7.28;;;31.90;58.60;;;;;;5097049;28;20187;-67
2023/06/27 08:52:18;;;;;;;11.40;7.35;;;32.10;57.50;;;;;;5096846;28;20112;-66
2023/06/27 08:54:55;;;;;;;12.02;7.85;;;32.00;57.70;;;;;;5097436;28;20028;-67
2023/06/27 08:57:25;;;;;;;10.80;8.32;;;32.30;58.90;;;;;;5103483;28;20055;-66
2023/06/27 08:59:54;;;;;;;15.75;9.20;;;32.50;55.90;;;;;;5117350;28;20031;-66
2023/06/27 09:02:21;;;;;;;15.27;8.43;;;31.00;55.40;;;;;;5116805;28;20032;-67
2023/06/27 09:04:47;;;;;;;14.98;8.52;;;30.70;57.00;;;;;;5114430;28;20028;-66
2023/06/27 09:07:13;;;;;;;10.63;8.00;;;31.30;54.30;;;;;;5107247;28;20041;-67
2023/06/27 09:09:40;;;;;;;12.23;7.40;;;31.80;54.90;;;;;;5115513;28;20024;-67
2023/06/27 09:12:10;;;;;;;10.00;7.35;;;32.30;54.80;;;;;;5115438;28;20387;-67
2023/06/27 09:14:37;;;;;;;10.60;7.97;;;32.60;53.90;;;;;;5115464;27;20091;-66
2023/06/27 09:17:05;;;;;;;13.13;8.32;;;32.70;52.90;;;;;;5115759;28;20036;-66
2023/06/27 09:19:38;;;;;;;10.43;7.30;;;33.20;53.40;;;;;;5115972;28;20024;-66
2023/06/27 09:22:07;;;;;;;11.35;7.25;;;33.30;48.90;;;;;;5106378;28;20028;-66
2023/06/27 09:24:35;;;;;;;9.38;7.10;;;33.30;46.60;;;;;;5095675;28;20052;-66
2023/06/27 09:27:01;;;;;;;11.80;7.70;;;33.50;45.90;;;;;;5095372;28;20385;-67
2023/06/27 09:29:35;;;;;;;11.43;8.40;;;33.50;48.70;;;;;;5095579;28;20024;-66
2023/06/27 09:32:10;;;;;;;11.32;7.30;;;33.50;45.60;;;;;;5095310;28;20497;-66
2023/06/27 09:34:36;;;;;;;11.70;7.78;;;33.60;45.40;;;;;;5095392;28;20039;-67
2023/06/27 09:37:03;;;;;;;12.40;8.80;;;32.90;42.60;;;;;;5107210;28;20024;-67
2023/06/27 09:39:29;;;;;;;15.10;10.38;;;33.40;45.10;;;;;;5114041;28;20054;-67
2023/06/27 09:41:54;;;;;;;18.30;10.95;;;33.50;46.80;;;;;;5115214;28;20102;-66
2023/06/27 09:44:23;;;;;;;16.25;11.57;;;33.60;45.50;;;;;;5114536;28;20030;-67
2023/06/27 09:46:54;;;;;;;20.48;12.07;;;33.80;46.50;;;;;;5115630;28;20036;-67
2023/06/27 09:49:21;;;;;;;18.73;11.35;;;33.80;45.60;;;;;;5099590;28;20476;-67
2023/06/27 09:51:53;;;;;;;17.20;11.93;;;34.10;44.00;;;;;;5110830;28;20103;-67
2023/06/27 09:54:21;;;;;;;20.33;13.25;;;33.80;44.50;;;;;;5115481;28;20033;-67
2023/06/27 09:56:51;;;;;;;18.67;12.15;;;33.90;43.30;;;;;;5115053;28;20446;-67
2023/06/27 09:59:22;;;;;;;24.23;11.68;;;33.40;44.20;;;;;;5115483;28;20036;-67
2023/06/27 10:01:52;;;;;;;25.02;12.05;;;33.70;43.00;;;;;;5112827;28;20027;-67
2023/06/27 10:04:19;;;;;;;21.17;12.63;;;33.10;43.90;;;;;;5114395;28;20068;-67
2023/06/27 10:06:46;;;;;;;24.58;13.63;;;33.20;45.80;;;;;;5115249;28;20039;-67
2023/06/27 10:09:13;;;;;;;18.38;11.55;;;33.50;44.10;;;;;;5115462;28;20073;-67
2023/06/27 10:11:39;;;;;;;19.27;10.15;;;33.80;45.30;;;;;;5115159;28;20484;-67
2023/06/27 10:14:05;;;;;;;13.85;7.47;;;34.10;43.00;;;;;;5115027;28;20468;-67
2023/06/27 10:16:52;;;;;;;11.13;7.32;;;34.10;41.40;;;;;;5114794;28;20101;-67
2023/06/27 10:19:19;;;;;;;12.73;7.65;;;34.20;44.50;;;;;;5115271;28;20032;-67
2023/06/27 10:21:45;;;;;;;10.15;6.95;;;34.40;42.50;;;;;;5114165;28;20028;-67
2023/06/27 10:24:12;;;;;;;11.73;6.55;;;34.50;44.50;;;;;;5115196;28;20036;-67
2023/06/27 10:26:38;;;;;;;7.47;5.70;;;34.60;42.90;;;;;;5114792;28;20035;-67
2023/06/27 10:29:14;;;;;;;12.13;7.93;;;34.60;39.20;;;;;;5101721;28;20044;-67
2023/06/27 10:31:49;;;;;;;10.45;6.57;;;34.40;43.80;;;;;;5107490;28;20022;-67
2023/06/27 10:34:24;;;;;;;10.60;6.93;;;34.80;42.80;;;;;;5111140;28;20099;-66
2023/06/27 10:37:01;;;;;;;10.65;6.00;;;34.50;39.60;;;;;;5111786;28;20051;-67
2023/06/27 10:39:31;;;;;;;9.40;5.90;;;34.00;40.50;;;;;;5114859;28;20381;-66
2023/06/27 10:42:04;;;;;;;25.23;7.88;;;33.30;42.10;;;;;;5114754;28;20489;-66
2023/06/27 10:45:04;;;;;;;14.52;6.70;;;33.30;42.50;;;;;;5114615;28;20425;-66
2023/06/27 10:47:35;;;;;;;11.82;6.65;;;32.80;45.00;;;;;;5114495;28;20063;-66
2023/06/27 10:50:11;;;;;;;29.98;7.80;;;32.50;49.00;;;;;;5114671;28;20031;-66
2023/06/27 10:52:38;;;;;;;11.07;6.55;;;32.30;50.60;;;;;;5114775;28;20024;-66
2023/06/27 10:55:19;;;;;;;22.73;7.47;;;32.00;53.00;;;;;;5114705;28;20028;-66
2023/06/27 10:57:48;;;;;;;15.70;7.45;;;32.80;51.90;;;;;;5114814;28;20088;-66
2023/06/27 11:00:16;;;;;;;14.60;6.80;;;33.00;45.10;;;;;;5115517;28;20073;-67
2023/06/27 11:02:45;;;;;;;11.57;6.40;;;32.90;45.00;;;;;;5114886;28;20028;-67
2023/06/27 11:05:16;;;;;;;14.13;5.95;;;33.00;43.40;;;;;;5112385;28;20032;-67
2023/06/27 11:07:52;;;;;;;12.50;6.20;;;33.80;45.40;;;;;;5111313;28;20063;-67
2023/06/27 11:10:37;;;;;;;7.93;6.47;;;34.00;44.90;;;;;;5114092;28;20475;-66
2023/06/27 11:13:18;;;;;;;11.15;7.03;;;33.80;42.40;;;;;;5111543;28;20138;-66
2023/06/27 11:15:46;;;;;;;9.80;6.73;;;34.20;42.10;;;;;;5114586;28;20055;-67
2023/06/27 11:18:16;;;;;;;12.07;6.32;;;34.20;43.40;;;;;;5114492;28;20039;-66
2023/06/27 11:20:43;;;;;;;16.33;6.47;;;33.70;39.00;;;;;;5113805;28;20020;-66
2023/06/27 11:23:16;;;;;;;9.63;5.72;;;33.20;40.90;;;;;;5111984;28;20031;-66
2023/06/27 11:25:44;;;;;;;14.65;7.38;;;33.50;42.40;;;;;;5113000;28;20027;-67
2023/06/27 11:28:11;;;;;;;12.38;7.30;;;34.20;43.20;;;;;;5114274;28;20084;-66
2023/06/27 11:30:39;;;;;;;10.05;6.78;;;33.60;42.00;;;;;;5113907;28;20020;-66
2023/06/27 11:33:08;;;;;;;11.90;7.45;;;33.80;41.20;;;;;;5114724;28;20031;-67
2023/06/27 11:35:38;;;;;;;9.73;6.18;;;34.00;44.80;;;;;;5117570;28;20034;-66
2023/06/27 11:38:09;;;;;;;8.02;6.18;;;34.10;41.20;;;;;;5117673;28;20030;-66
2023/06/27 11:40:35;;;;;;;7.78;5.88;;;34.30;41.10;;;;;;5117495;28;20038;-66
2023/06/27 11:43:06;;;;;;;19.33;8.75;;;34.20;41.10;;;;;;5117293;27;20023;-66
2023/06/27 11:45:33;;;;;;;9.50;6.22;;;34.90;39.90;;;;;;5098972;28;20135;-67
2023/06/27 11:48:00;;;;;;;5.63;5.07;;;34.30;45.10;;;;;;5096459;28;20046;-67
2023/06/27 11:50:27;;;;;;;7.75;5.47;;;34.50;40.60;;;;;;5097072;28;20020;-67
2023/06/27 11:52:56;;;;;;;9.50;6.28;;;35.00;39.40;;;;;;5097867;28;20024;-68
2023/06/27 11:55:22;;;;;;;8.25;5.68;;;34.80;39.70;;;;;;5096873;28;20024;-67
2023/06/27 11:57:48;;;;;;;8.98;5.55;;;35.60;40.60;;;;;;5116046;28;20088;-68
2023/06/27 12:00:16;;;;;;;14.40;6.97;;;35.70;41.50;;;;;;5118483;28;20037;-67
2023/06/27 12:02:45;;;;;;;10.30;6.22;;;34.80;38.40;;;;;;5116728;28;20469;-67
2023/06/27 12:05:18;;;;;;;11.73;7.20;;;33.90;40.60;;;;;;5118096;28;20063;-66
2023/06/27 12:07:57;;;;;;;12.15;6.18;;;34.20;41.10;;;;;;5118235;28;20036;-68
2023/06/27 12:10:24;;;;;;;8.05;5.60;;;34.60;41.90;;;;;;5117640;28;20098;-67
2023/06/27 12:12:51;;;;;;;7.88;6.10;;;34.60;43.30;;;;;;5118153;28;20083;-67
2023/06/27 12:15:17;;;;;;;7.03;6.22;;;34.90;41.60;;;;;;5116385;28;20019;-67
2023/06/27 12:17:57;;;;;;;9.35;5.97;;;35.30;41.70;;;;;;5116855;28;20496;-67
2023/06/27 12:20:23;;;;;;;10.00;5.95;;;35.30;42.30;;;;;;5117223;27;20488;-67
2023/06/27 12:22:49;;;;;;;9.73;5.65;;;35.50;40.10;;;;;;5115297;28;20032;-67
2023/06/27 12:25:15;;;;;;;7.15;5.75;;;35.30;39.40;;;;;;5116776;28;20096;-67
2023/06/27 12:27:40;;;;;;;11.48;6.72;;;35.30;41.30;;;;;;5117084;28;20118;-67
2023/06/27 12:30:09;;;;;;;8.32;6.25;;;35.00;41.40;;;;;;5117050;28;20028;-67
2023/06/27 12:32:38;;;;;;;7.28;6.10;;;35.20;42.50;;;;;;5117056;28;20499;-67
2023/06/27 12:35:05;;;;;;;13.50;6.50;;;34.20;41.00;;;;;;5116882;28;20042;-67
2023/06/27 12:37:33;;;;;;;8.45;6.43;;;34.20;42.20;;;;;;5116885;28;20118;-67
2023/06/27 12:40:00;;;;;;;7.47;5.30;;;33.80;43.70;;;;;;5116791;28;20101;-67
2023/06/27 12:42:26;;;;;;;11.07;6.57;;;34.30;45.10;;;;;;5116498;28;20024;-67